createdAt,value
2022-10-19T00:02:07.404Z,97057.78
2022-10-19T00:04:34.503Z,97064.28
2022-10-19T00:07:01.430Z,97067.53
2022-10-19T00:09:29.066Z,97072.34
2022-10-19T00:11:56.157Z,97073.56
2022-10-19T00:14:24.455Z,97074.34
2022-10-19T00:16:52.546Z,97070.47
2022-10-19T00:19:22.512Z,97073.31
2022-10-19T00:24:17.027Z,97078.00
2022-10-19T00:26:43.594Z,97081.09
2022-10-19T00:29:13.004Z,97072.31
2022-10-19T00:31:39.927Z,97073.72
2022-10-19T00:34:06.452Z,97066.44
2022-10-19T00:36:36.510Z,97070.50
2022-10-19T00:39:08.786Z,97072.06
2022-10-19T00:41:37.316Z,97085.25
2022-10-19T00:44:12.256Z,97078.78
2022-10-19T00:46:41.979Z,97073.09
2022-10-19T00:49:19.780Z,97076.38
2022-10-19T00:51:53.351Z,97079.50
2022-10-19T00:54:20.971Z,97078.41
2022-10-19T00:56:51.744Z,97083.41
2022-10-19T00:59:25.298Z,97079.19
2022-10-19T01:01:52.831Z,97079.06
2022-10-19T01:04:23.383Z,97079.72
2022-10-19T01:09:17.774Z,97075.28
2022-10-19T01:11:54.480Z,97074.81
2022-10-19T01:14:26.795Z,97072.97
2022-10-19T01:16:59.459Z,97073.16
2022-10-19T01:19:45.765Z,97072.41
2022-10-19T01:22:38.391Z,97067.16
2022-10-19T01:25:31.495Z,97054.09
2022-10-19T01:28:11.923Z,97060.25
2022-10-19T01:30:53.452Z,97057.44
2022-10-19T01:33:51.051Z,97049.63
2022-10-19T01:36:27.395Z,97052.84
2022-10-19T01:39:04.083Z,97047.25
2022-10-19T01:41:42.392Z,97051.94
2022-10-19T01:44:22.998Z,97055.34
2022-10-19T01:47:03.003Z,97052.69
2022-10-19T01:49:43.715Z,97057.59
2022-10-19T01:52:14.851Z,97048.09
2022-10-19T01:54:49.785Z,97047.59
2022-10-19T01:57:23.362Z,97048.75
2022-10-19T01:59:50.635Z,97050.28
2022-10-19T02:02:18.464Z,97048.78
2022-10-19T02:04:47.132Z,97053.09
2022-10-19T02:07:14.335Z,97046.22
2022-10-19T02:09:40.671Z,97038.09
2022-10-19T02:12:10.850Z,97042.19
2022-10-19T02:14:42.839Z,97037.38
2022-10-19T02:17:12.692Z,97035.91
2022-10-19T02:19:39.495Z,97037.16
2022-10-19T02:22:07.261Z,97035.75
2022-10-19T02:24:33.647Z,97031.09
2022-10-19T02:27:01.653Z,97026.03
2022-10-19T02:29:28.830Z,97034.06
2022-10-19T02:31:55.182Z,97036.72
2022-10-19T02:34:22.147Z,97020.00
2022-10-19T02:36:49.683Z,97023.72
2022-10-19T02:39:16.415Z,97023.31
2022-10-19T02:41:50.219Z,97015.75
2022-10-19T02:44:25.456Z,97018.63
2022-10-19T02:47:02.211Z,97005.28
2022-10-19T02:49:30.863Z,97011.03
2022-10-19T02:52:03.815Z,97014.38
2022-10-19T02:54:31.035Z,97014.41
2022-10-19T02:56:57.492Z,97011.63
2022-10-19T02:59:24.455Z,97006.34
2022-10-19T03:01:51.593Z,97019.66
2022-10-19T03:04:17.966Z,97015.66
2022-10-19T03:06:44.527Z,97013.81
2022-10-19T03:09:10.855Z,97006.84
2022-10-19T03:11:37.198Z,97005.81
2022-10-19T03:14:04.100Z,97006.44
2022-10-19T03:16:30.419Z,97003.56
2022-10-19T03:18:56.766Z,97006.84
2022-10-19T03:21:23.659Z,97000.66
2022-10-19T03:23:50.361Z,96990.81
2022-10-19T03:26:17.829Z,97003.97
2022-10-19T03:28:44.321Z,96989.19
2022-10-19T03:31:11.403Z,96991.25
2022-10-19T03:33:37.745Z,96992.88
2022-10-19T03:36:25.404Z,96980.16
2022-10-19T03:38:56.466Z,96990.59
2022-10-19T03:41:25.062Z,96987.94
2022-10-19T03:43:52.169Z,96991.41
2022-10-19T03:46:19.172Z,96980.16
2022-10-19T03:48:46.324Z,96984.66
2022-10-19T03:51:19.507Z,96993.03
2022-10-19T03:53:46.741Z,96992.41
2022-10-19T03:56:16.265Z,96993.19
2022-10-19T03:58:44.565Z,96991.75
2022-10-19T04:01:17.023Z,97005.13
2022-10-19T04:03:43.847Z,96992.63
2022-10-19T04:06:17.031Z,96992.84
2022-10-19T04:08:48.476Z,96986.28
2022-10-19T04:11:21.510Z,96991.41
2022-10-19T04:13:50.239Z,96985.84
2022-10-19T04:16:17.767Z,96999.22
2022-10-19T04:18:44.723Z,96990.81
2022-10-19T04:21:23.174Z,96991.81
2022-10-19T04:23:54.528Z,96985.03
2022-10-19T04:26:21.157Z,96985.38
2022-10-19T04:28:48.051Z,96987.66
2022-10-19T04:31:14.766Z,96979.63
2022-10-19T04:33:41.445Z,96988.66
2022-10-19T04:36:10.790Z,96974.97
2022-10-19T04:38:38.352Z,96976.59
2022-10-19T04:41:07.714Z,96975.75
2022-10-19T04:43:34.439Z,96974.34
2022-10-19T04:46:05.582Z,96986.28
2022-10-19T04:48:32.815Z,96980.13
2022-10-19T04:50:59.316Z,96975.19
2022-10-19T04:53:26.301Z,96976.38
2022-10-19T04:55:52.787Z,96972.72
2022-10-19T04:58:19.300Z,96977.03
2022-10-19T05:00:46.105Z,96963.06
2022-10-19T05:03:12.559Z,96966.16
2022-10-19T05:05:38.990Z,96978.44
2022-10-19T05:08:05.824Z,96973.13
2022-10-19T05:10:32.298Z,96974.34
2022-10-19T05:13:01.295Z,96974.34
2022-10-19T05:15:28.704Z,96970.44
2022-10-19T05:17:55.421Z,96972.16
2022-10-19T05:20:22.439Z,96980.94
2022-10-19T05:22:49.171Z,96975.22
2022-10-19T05:25:16.047Z,96977.69
2022-10-19T05:27:42.533Z,96972.56
2022-10-19T05:30:09.736Z,96964.13
2022-10-19T05:32:36.059Z,96966.56
2022-10-19T05:35:02.939Z,96959.63
2022-10-19T05:37:29.251Z,96965.56
2022-10-19T05:39:55.595Z,96963.47
2022-10-19T05:42:22.241Z,96965.75
2022-10-19T05:44:48.551Z,96964.13
2022-10-19T05:47:14.931Z,96963.69
2022-10-19T05:49:41.820Z,96963.69
2022-10-19T05:52:08.152Z,96966.19
2022-10-19T05:54:35.916Z,96963.69
2022-10-19T05:57:02.922Z,96975.00
2022-10-19T05:59:29.237Z,96967.41
2022-10-19T06:01:56.351Z,96964.13
2022-10-19T06:04:23.986Z,96964.13
2022-10-19T06:06:50.329Z,96973.13
2022-10-19T06:09:17.206Z,96968.38
2022-10-19T06:11:43.723Z,96981.91
2022-10-19T06:14:15.643Z,96988.25
2022-10-19T06:16:42.428Z,96982.91
2022-10-19T06:19:08.852Z,96980.41
2022-10-19T06:21:35.653Z,96982.47
2022-10-19T06:24:04.707Z,96973.66
2022-10-19T06:26:32.884Z,96981.91
2022-10-19T06:29:01.112Z,96975.91
2022-10-19T06:31:29.131Z,96984.97
2022-10-19T06:33:55.990Z,96985.56
2022-10-19T06:36:25.552Z,96978.38
2022-10-19T06:38:53.112Z,96991.09
2022-10-19T06:41:19.836Z,96986.53
2022-10-19T06:43:53.712Z,97000.06
2022-10-19T06:46:23.348Z,96990.59
2022-10-19T06:49:01.593Z,96990.19
2022-10-19T06:51:30.150Z,96992.84
2022-10-19T06:53:57.535Z,97000.25
2022-10-19T06:56:26.629Z,96999.81
2022-10-19T06:58:54.169Z,96997.16
2022-10-19T07:01:21.376Z,96997.75
2022-10-19T07:03:48.268Z,96997.06
2022-10-19T07:06:15.066Z,96998.25
2022-10-19T07:08:43.720Z,96996.63
2022-10-19T07:11:15.185Z,96998.91
2022-10-19T07:13:41.622Z,97003.38
2022-10-19T07:16:20.642Z,97004.81
2022-10-19T07:18:48.223Z,97002.22
2022-10-19T07:21:16.473Z,97015.81
2022-10-19T07:23:44.099Z,97004.19
2022-10-19T07:26:18.112Z,97010.19
2022-10-19T07:28:46.708Z,97006.69
2022-10-19T07:31:18.189Z,96996.41
2022-10-19T07:33:45.896Z,96991.06
2022-10-19T07:36:13.702Z,96989.38
2022-10-19T07:38:41.087Z,96985.72
2022-10-19T07:41:12.572Z,96983.78
2022-10-19T07:43:41.047Z,96993.38
2022-10-19T07:46:10.997Z,96992.97
2022-10-19T07:48:37.403Z,96988.28
2022-10-19T07:51:07.728Z,96980.63
2022-10-19T07:53:34.883Z,96978.72
2022-10-19T07:56:19.712Z,96989.41
2022-10-19T07:58:46.394Z,96989.94
2022-10-19T08:01:15.673Z,96979.53
2022-10-19T08:04:31.713Z,96990.38
2022-10-19T08:06:29.481Z,96984.91
2022-10-19T08:08:56.500Z,96981.34
2022-10-19T08:11:26.289Z,96984.19
2022-10-19T08:13:54.364Z,96984.19
2022-10-19T08:16:25.746Z,96988.75
2022-10-19T08:18:53.359Z,96986.84
2022-10-19T08:21:20.081Z,96992.94
2022-10-19T08:23:46.907Z,97002.91
2022-10-19T08:26:13.260Z,96994.31
2022-10-19T08:28:39.641Z,97003.06
2022-10-19T08:31:15.215Z,97002.28
2022-10-19T08:33:42.172Z,97002.88
2022-10-19T08:36:11.102Z,97002.84
2022-10-19T08:38:38.335Z,96996.66
2022-10-19T08:41:38.217Z,96988.28
2022-10-19T08:44:26.477Z,96995.59
2022-10-19T08:47:03.873Z,97000.38
2022-10-19T08:49:31.967Z,97000.91
2022-10-19T08:52:12.611Z,96998.75
2022-10-19T08:55:01.129Z,97000.53
2022-10-19T08:58:11.055Z,97001.06
2022-10-19T09:00:43.801Z,96986.88
2022-10-19T09:03:37.732Z,96977.63
2022-10-19T09:06:45.335Z,96981.50
2022-10-19T09:09:18.331Z,96983.72
2022-10-19T09:11:49.666Z,96981.81
2022-10-19T09:14:42.386Z,96981.13
2022-10-19T09:17:17.287Z,96992.47
2022-10-19T09:19:43.623Z,97000.59
2022-10-19T09:22:19.968Z,96996.63
2022-10-19T09:24:55.986Z,96994.53
2022-10-19T09:27:25.199Z,96994.28
2022-10-19T09:29:56.651Z,96994.72
2022-10-19T09:32:32.983Z,96995.59
2022-10-19T09:35:07.140Z,97000.16
2022-10-19T09:37:40.647Z,96991.81
2022-10-19T09:40:17.051Z,96991.09
2022-10-19T09:42:43.414Z,96984.31
2022-10-19T09:45:19.743Z,96989.22
2022-10-19T09:47:48.354Z,96993.38
2022-10-19T09:50:22.487Z,96992.34
2022-10-19T09:52:55.188Z,96982.34
2022-10-19T09:55:44.020Z,97001.88
2022-10-19T09:58:13.532Z,96984.25
2022-10-19T10:00:46.076Z,96990.59
2022-10-19T10:03:28.611Z,96982.50
2022-10-19T10:06:12.377Z,96985.31
2022-10-19T10:08:48.044Z,96985.28
2022-10-19T10:11:24.084Z,96994.44
2022-10-19T10:13:56.058Z,96978.22
2022-10-19T10:16:30.166Z,96987.91
2022-10-19T10:19:00.119Z,96979.84
2022-10-19T10:21:45.295Z,96983.50
2022-10-19T10:24:11.733Z,96986.88
2022-10-19T10:26:46.424Z,96991.38
2022-10-19T10:29:21.643Z,96976.59
2022-10-19T10:31:52.586Z,96984.19
2022-10-19T10:34:37.654Z,96988.00
2022-10-19T10:37:39.118Z,96982.50
2022-10-19T10:40:19.857Z,96978.59
2022-10-19T10:42:49.863Z,96972.00
2022-10-19T10:45:23.239Z,96970.16
2022-10-19T10:47:50.306Z,96968.88
2022-10-19T10:50:22.823Z,96968.69
2022-10-19T10:53:34.164Z,96954.81
2022-10-19T10:56:01.800Z,96954.31
2022-10-19T10:58:37.107Z,96957.56
2022-10-19T11:01:08.053Z,96957.50
2022-10-19T11:03:37.608Z,96959.66
2022-10-19T11:06:04.170Z,96948.03
2022-10-19T11:08:44.443Z,96943.91
2022-10-19T11:11:25.586Z,96939.84
2022-10-19T11:14:20.488Z,96935.09
2022-10-19T11:16:50.007Z,96943.56
2022-10-19T11:19:27.908Z,96932.47
2022-10-19T11:22:21.308Z,96929.47
2022-10-19T11:25:13.458Z,96922.34
2022-10-19T11:28:07.555Z,96928.41
2022-10-19T11:30:50.535Z,96930.97
2022-10-19T11:33:37.191Z,96930.50
2022-10-19T11:36:32.515Z,96917.53
2022-10-19T11:39:09.941Z,96923.59
2022-10-19T11:41:45.910Z,96921.16
2022-10-19T11:44:27.074Z,96919.41
2022-10-19T11:47:30.116Z,96913.88
2022-10-19T11:53:02.536Z,96907.25
2022-10-19T11:55:45.710Z,96900.91
2022-10-19T11:58:34.618Z,96895.63
2022-10-19T12:01:20.658Z,96892.03
2022-10-19T12:04:12.856Z,96887.69
2022-10-19T12:07:06.030Z,96894.47
2022-10-19T12:10:13.948Z,96879.13
2022-10-19T12:12:47.751Z,96880.34
2022-10-19T12:15:46.422Z,96868.44
2022-10-19T12:18:39.615Z,96863.88
2022-10-19T12:21:24.604Z,96856.25
2022-10-19T12:23:52.457Z,96858.28
2022-10-19T12:26:21.813Z,96843.47
2022-10-19T12:29:07.595Z,96851.22
2022-10-19T12:31:35.889Z,96852.19
2022-10-19T12:34:21.324Z,96848.53
2022-10-19T12:37:07.312Z,96838.75
2022-10-19T12:39:49.806Z,96843.47
2022-10-19T12:42:29.719Z,96836.44
2022-10-19T12:45:19.282Z,96833.19
2022-10-19T12:48:16.034Z,96833.41
2022-10-19T12:51:04.075Z,96827.81
2022-10-19T12:53:39.991Z,96829.06
2022-10-19T12:56:09.035Z,96821.97
2022-10-19T12:58:46.607Z,96812.47
2022-10-19T13:01:34.341Z,96819.72
2022-10-19T13:04:15.583Z,96816.63
2022-10-19T13:06:56.891Z,96812.31
2022-10-19T13:09:26.832Z,96803.50
2022-10-19T13:12:25.662Z,96800.00
2022-10-19T13:14:55.473Z,96799.00
2022-10-19T13:17:34.460Z,96796.66
2022-10-19T13:20:16.506Z,96804.75
2022-10-19T13:22:49.664Z,96808.09
2022-10-19T13:25:15.918Z,96799.59
2022-10-19T13:27:49.299Z,96795.88
2022-10-19T13:30:34.250Z,96794.00
2022-10-19T13:33:21.638Z,96788.41
2022-10-19T13:35:49.452Z,96780.72
2022-10-19T13:38:16.246Z,96782.50
2022-10-19T13:40:48.523Z,96779.31
2022-10-19T13:43:21.443Z,96776.31
2022-10-19T13:46:03.971Z,96774.69
2022-10-19T13:48:43.274Z,96766.78
2022-10-19T13:51:30.957Z,96769.53
2022-10-19T13:54:06.843Z,96768.53
2022-10-19T13:57:06.283Z,96764.84
2022-10-19T13:59:59.362Z,96757.19
2022-10-19T14:02:57.164Z,96767.13
2022-10-19T14:05:29.884Z,96757.72
2022-10-19T14:08:18.050Z,96747.72
2022-10-19T14:11:00.595Z,96751.53
2022-10-19T14:13:28.134Z,96749.84
2022-10-19T14:15:56.775Z,96756.59
2022-10-19T14:18:26.853Z,96752.06
2022-10-19T14:21:08.004Z,96754.09
2022-10-19T14:23:42.995Z,96759.22
2022-10-19T14:26:19.404Z,96759.66
2022-10-19T14:28:51.596Z,96758.88
2022-10-19T14:31:22.118Z,96752.31
2022-10-19T14:33:52.451Z,96753.34
2022-10-19T14:36:22.641Z,96748.09
2022-10-19T14:38:52.255Z,96747.31
2022-10-19T14:41:29.594Z,96739.56
2022-10-19T14:43:57.209Z,96733.78
2022-10-19T14:46:30.198Z,96722.59
2022-10-19T14:49:04.181Z,96729.56
2022-10-19T14:51:40.718Z,96729.28
2022-10-19T14:54:15.866Z,96730.13
2022-10-19T14:56:56.891Z,96719.03
2022-10-19T14:59:37.348Z,96711.19
2022-10-19T15:02:38.958Z,96717.53
2022-10-19T15:05:15.859Z,96716.69
2022-10-19T15:07:43.290Z,96719.28
2022-10-19T15:10:19.517Z,96709.94
2022-10-19T15:12:46.348Z,96718.34
2022-10-19T15:15:26.398Z,96706.78
2022-10-19T15:17:56.455Z,96702.53
2022-10-19T15:20:24.940Z,96699.44
2022-10-19T15:22:51.778Z,96704.06
2022-10-19T15:25:27.328Z,96715.72
2022-10-19T15:27:54.235Z,96704.00
2022-10-19T15:30:28.366Z,96698.75
2022-10-19T15:33:10.436Z,96695.00
2022-10-19T15:35:39.742Z,96703.16
2022-10-19T15:38:10.640Z,96690.84
2022-10-19T15:40:40.742Z,96693.66
2022-10-19T15:43:33.246Z,96694.94
2022-10-19T15:46:31.891Z,96694.38
2022-10-19T15:49:23.675Z,96698.34
2022-10-19T15:51:51.349Z,96686.78
2022-10-19T15:54:19.073Z,96682.38
2022-10-19T15:56:47.740Z,96674.81
2022-10-19T15:59:17.570Z,96675.25
2022-10-19T16:01:45.485Z,96687.34
2022-10-19T16:04:11.840Z,96670.81
2022-10-19T16:06:40.903Z,96679.91
2022-10-19T16:09:08.420Z,96683.97
2022-10-19T16:11:35.298Z,96671.97
2022-10-19T16:14:02.230Z,96668.28
2022-10-19T16:16:31.764Z,96668.50
2022-10-19T16:18:59.302Z,96671.41
2022-10-19T16:21:30.027Z,96663.16
2022-10-19T16:23:56.781Z,96658.97
2022-10-19T16:26:25.335Z,96663.16
2022-10-19T16:28:53.096Z,96659.53
2022-10-19T16:31:20.604Z,96656.84
2022-10-19T16:33:46.933Z,96661.25
2022-10-19T16:36:13.496Z,96648.81
2022-10-19T16:38:40.337Z,96644.28
2022-10-19T16:41:09.019Z,96649.88
2022-10-19T16:43:35.999Z,96640.88
2022-10-19T16:46:03.431Z,96643.69
2022-10-19T16:48:31.100Z,96655.53
2022-10-19T16:51:12.332Z,96658.22
2022-10-19T16:53:39.319Z,96664.16
2022-10-19T16:56:08.639Z,96666.00
2022-10-19T16:58:36.964Z,96655.22
2022-10-19T17:01:12.977Z,96659.63
2022-10-19T17:03:39.416Z,96659.88
2022-10-19T17:06:06.910Z,96666.84
2022-10-19T17:09:02.715Z,96657.41
2022-10-19T17:11:24.542Z,96665.09
2022-10-19T17:13:52.868Z,96667.53
2022-10-19T17:16:21.349Z,96675.66
2022-10-19T17:18:48.756Z,96668.75
2022-10-19T17:21:19.503Z,96660.03
2022-10-19T17:23:46.175Z,96667.66
2022-10-19T17:26:12.865Z,96673.16
2022-10-19T17:28:40.796Z,96666.81
2022-10-19T17:31:10.099Z,96680.31
2022-10-19T17:33:37.242Z,96688.19
2022-10-19T17:36:13.495Z,96679.00
2022-10-19T17:38:40.642Z,96681.03
2022-10-19T17:41:13.466Z,96681.81
2022-10-19T17:43:41.110Z,96689.41
2022-10-19T17:46:10.365Z,96689.84
2022-10-19T17:48:38.588Z,96697.03
2022-10-19T17:51:12.264Z,96689.31
2022-10-19T17:53:38.742Z,96690.88
2022-10-19T17:56:07.102Z,96691.34
2022-10-19T17:58:39.042Z,96687.41
2022-10-19T18:01:06.891Z,96679.84
2022-10-19T18:03:35.471Z,96679.91
2022-10-19T18:06:10.734Z,96682.44
2022-10-19T18:08:40.909Z,96691.19
2022-10-19T18:11:13.510Z,96686.06
2022-10-19T18:13:40.482Z,96692.22
2022-10-19T18:16:13.807Z,96689.94
2022-10-19T18:18:42.163Z,96689.72
2022-10-19T18:21:12.220Z,96692.16
2022-10-19T18:23:39.690Z,96682.38
2022-10-19T18:26:09.406Z,96688.97
2022-10-19T18:28:36.146Z,96678.44
2022-10-19T18:31:13.906Z,96680.78
2022-10-19T18:33:41.080Z,96674.59
2022-10-19T18:36:09.073Z,96677.66
2022-10-19T18:38:37.556Z,96681.59
2022-10-19T18:41:11.555Z,96677.22
2022-10-19T18:43:41.988Z,96678.47
2022-10-19T18:46:09.492Z,96676.09
2022-10-19T18:48:38.231Z,96678.19
2022-10-19T18:51:07.163Z,96677.84
2022-10-19T18:53:34.779Z,96680.03
2022-10-19T18:56:06.820Z,96689.34
2022-10-19T18:58:33.963Z,96673.84
2022-10-19T19:01:14.433Z,96681.94
2022-10-19T19:03:43.355Z,96676.81
2022-10-19T19:06:12.939Z,96674.16
2022-10-19T19:08:39.656Z,96674.56
2022-10-19T19:11:18.218Z,96669.66
2022-10-19T19:13:54.106Z,96660.50
2022-10-19T19:16:21.765Z,96677.09
2022-10-19T19:18:48.410Z,96670.13
2022-10-19T19:21:14.753Z,96671.53
2022-10-19T19:23:41.816Z,96664.81
2022-10-19T19:26:09.285Z,96669.75
2022-10-19T19:28:37.925Z,96664.03
2022-10-19T19:31:08.258Z,96655.41
2022-10-19T19:33:34.963Z,96654.25
2022-10-19T19:36:05.308Z,96646.88
2022-10-19T19:38:32.295Z,96652.81
2022-10-19T19:40:58.637Z,96657.72
2022-10-19T19:43:25.041Z,96657.31
2022-10-19T19:46:03.150Z,96646.50
2022-10-19T19:48:32.679Z,96656.09
2022-10-19T19:50:59.007Z,96656.31
2022-10-19T19:53:25.339Z,96654.06
2022-10-19T19:55:52.160Z,96648.13
2022-10-19T19:58:18.875Z,96649.78
2022-10-19T20:00:46.204Z,96653.84
2022-10-19T20:03:13.635Z,96652.00
2022-10-19T20:05:40.728Z,96659.00
2022-10-19T20:08:08.400Z,96655.50
2022-10-19T20:10:43.008Z,96662.44
2022-10-19T20:13:10.116Z,96663.69
2022-10-19T20:15:39.558Z,96668.97
2022-10-19T20:18:06.440Z,96663.50
2022-10-19T20:20:33.254Z,96671.47
2022-10-19T20:22:59.880Z,96660.78
2022-10-19T20:25:26.506Z,96667.75
2022-10-19T20:27:52.856Z,96662.84
2022-10-19T20:30:19.752Z,96664.88
2022-10-19T20:32:46.050Z,96662.84
2022-10-19T20:35:12.414Z,96657.31
2022-10-19T20:37:39.128Z,96658.53
2022-10-19T20:40:08.747Z,96663.63
2022-10-19T20:42:36.110Z,96659.13
2022-10-19T20:45:03.751Z,96647.28
2022-10-19T20:47:30.099Z,96651.97
2022-10-19T20:49:56.580Z,96645.03
2022-10-19T20:52:23.314Z,96641.53
2022-10-19T20:54:49.638Z,96635.81
2022-10-19T20:57:16.368Z,96630.50
2022-10-19T20:59:43.801Z,96629.69
2022-10-19T21:02:12.126Z,96622.38
2022-10-19T21:04:38.609Z,96619.88
2022-10-19T21:07:05.082Z,96635.41
2022-10-19T21:09:31.804Z,96624.31
2022-10-19T21:11:58.871Z,96619.00
2022-10-19T21:14:28.426Z,96619.84
2022-10-19T21:16:58.074Z,96611.25
2022-10-19T21:19:26.105Z,96608.59
2022-10-19T21:21:55.369Z,96619.41
2022-10-19T21:24:29.725Z,96617.41
2022-10-19T21:26:56.078Z,96618.16
2022-10-19T21:29:22.429Z,96611.19
2022-10-19T21:31:50.451Z,96608.72
2022-10-19T21:34:20.109Z,96612.56
2022-10-19T21:36:47.791Z,96610.31
2022-10-19T21:39:14.785Z,96604.78
2022-10-19T21:41:41.311Z,96614.00
2022-10-19T21:44:07.683Z,96614.84
2022-10-19T21:46:34.815Z,96614.41
2022-10-19T21:49:01.240Z,96614.41
2022-10-19T21:52:03.756Z,96608.03
2022-10-19T21:54:30.331Z,96607.84
2022-10-19T21:56:58.907Z,96613.41
2022-10-19T21:59:25.289Z,96611.97
2022-10-19T22:01:54.347Z,96617.84
2022-10-19T22:04:21.535Z,96611.47
2022-10-19T22:06:47.883Z,96613.88
2022-10-19T22:09:17.216Z,96610.16
2022-10-19T22:11:44.129Z,96611.22
2022-10-19T22:14:13.099Z,96605.50
2022-10-19T22:16:40.615Z,96614.19
2022-10-19T22:19:07.096Z,96605.66
2022-10-19T22:21:35.614Z,96603.56
2022-10-19T22:24:08.809Z,96593.75
2022-10-19T22:26:38.490Z,96605.91
2022-10-19T22:29:05.923Z,96604.19
2022-10-19T22:31:33.972Z,96601.09
2022-10-19T22:34:02.159Z,96601.31
2022-10-19T22:36:28.536Z,96609.72
2022-10-19T22:38:55.625Z,96596.41
2022-10-19T22:41:22.140Z,96599.06
2022-10-19T22:43:48.467Z,96589.47
2022-10-19T22:46:15.263Z,96585.19
2022-10-19T22:48:41.560Z,96579.91
2022-10-19T22:51:07.920Z,96574.78
2022-10-19T22:53:34.639Z,96576.81
2022-10-19T22:56:01.418Z,96578.22
2022-10-19T22:58:27.731Z,96586.41
2022-10-19T23:01:23.910Z,96581.38
2022-10-19T23:03:50.235Z,96577.06
2022-10-19T23:06:16.576Z,96576.03
2022-10-19T23:08:44.435Z,96564.63
2022-10-19T23:11:11.723Z,96561.56
2022-10-19T23:13:38.204Z,96554.16
2022-10-19T23:16:05.605Z,96563.50
2022-10-19T23:18:33.488Z,96562.72
2022-10-19T23:21:02.520Z,96565.44
2022-10-19T23:23:30.855Z,96572.94
2022-10-19T23:26:20.290Z,96567.44
2022-10-19T23:28:48.867Z,96561.72
2022-10-19T23:31:23.474Z,96562.50
2022-10-19T23:33:50.644Z,96557.09
2022-10-19T23:36:28.180Z,96564.31
2022-10-19T23:38:56.939Z,96562.84
2022-10-19T23:41:23.646Z,96559.78
2022-10-19T23:43:50.268Z,96563.69
2022-10-19T23:46:17.701Z,96556.81
2022-10-19T23:48:44.131Z,96559.72
2022-10-19T23:51:15.699Z,96557.03
2022-10-19T23:53:44.526Z,96548.28
2022-10-19T23:56:17.209Z,96557.69
2022-10-19T23:58:43.756Z,96546.88
